Time;durP1;ratioP1;P1;durP2;ratioP2;P2;SDS_P1;SDS_P2;PMS_P1;PMS_P2;Temp;Humidity;BMP_temperature;BMP_pressure;BME280_temperature;BME280_humidity;BME280_pressure;Samples;Min_cycle;Max_cycle;Signal;HPM_P1;HPM_P2
2021/07/28 00:00:46;;;;;;;19.40;12.85;;;;;;;17.92;83.53;99820.78;5066238;28;20025;-77
2021/07/28 00:03:11;;;;;;;26.17;16.17;;;;;;;17.92;83.65;99823.41;5067342;28;20029;-76
2021/07/28 00:05:37;;;;;;;21.20;13.80;;;;;;;17.94;83.52;99822.41;5067594;28;20024;-75
2021/07/28 00:08:02;;;;;;;16.17;13.32;;;;;;;17.99;83.33;99824.81;5067687;28;20027;-76
2021/07/28 00:10:28;;;;;;;17.15;13.15;;;;;;;18.00;83.37;99820.41;5067380;28;20458;-74
2021/07/28 00:12:54;;;;;;;17.90;14.15;;;;;;;17.99;83.30;99818.72;5067475;28;20025;-75
2021/07/28 00:15:19;;;;;;;16.65;12.80;;;;;;;17.95;83.57;99808.38;5067633;28;20024;-74
2021/07/28 00:17:51;;;;;;;15.93;13.80;;;;;;;17.97;83.33;99808.28;5067243;28;20422;-76
2021/07/28 00:23:14;;;;;;;15.73;13.82;;;;;;;17.91;83.40;99800.69;5066088;28;20037;-76
2021/07/28 00:25:43;;;;;;;20.70;14.35;;;;;;;17.90;83.45;99805.09;5067016;28;20056;-76
2021/07/28 00:28:09;;;;;;;17.73;14.18;;;;;;;17.89;83.49;99800.75;5067404;28;20045;-76
2021/07/28 00:30:34;;;;;;;18.63;13.68;;;;;;;17.87;83.46;99801.78;5066952;28;20028;-75
2021/07/28 00:33:00;;;;;;;25.67;14.40;;;;;;;17.85;83.49;99796.59;5066931;28;20036;-77
2021/07/28 00:35:26;;;;;;;20.83;14.38;;;;;;;17.90;83.39;99797.22;5066524;28;20071;-76
2021/07/28 00:37:51;;;;;;;19.52;14.75;;;;;;;17.84;83.58;99798.34;5065961;28;20361;-76
2021/07/28 00:40:17;;;;;;;20.77;13.55;;;;;;;17.83;83.62;99795.81;5066835;28;20032;-76
2021/07/28 00:42:43;;;;;;;22.70;14.10;;;;;;;17.78;83.93;99787.34;5067041;28;20048;-75
2021/07/28 00:45:09;;;;;;;19.48;13.77;;;;;;;17.76;83.76;99786.53;5067070;28;20044;-76
2021/07/28 00:47:34;;;;;;;23.33;14.18;;;;;;;17.71;83.76;99781.53;5066724;28;20033;-76
2021/07/28 00:50:01;;;;;;;19.77;13.80;;;;;;;17.66;83.94;99778.25;5066783;28;20025;-76
2021/07/28 00:52:29;;;;;;;18.40;13.70;;;;;;;17.68;84.08;99779.03;5066583;28;20085;-76
2021/07/28 00:54:54;;;;;;;19.90;14.38;;;;;;;17.70;84.27;99777.19;5066330;28;20028;-74
2021/07/28 00:57:20;;;;;;;18.70;13.55;;;;;;;17.71;84.28;99786.78;5066518;28;20021;-76
2021/07/28 00:59:46;;;;;;;17.55;13.20;;;;;;;17.73;83.99;99778.81;5066364;28;20076;-77
2021/07/28 01:02:11;;;;;;;21.42;15.05;;;;;;;17.69;84.09;99773.72;5066488;28;20043;-77
2021/07/28 01:04:37;;;;;;;19.27;14.75;;;;;;;17.66;84.18;99775.63;5065161;28;20043;-76
2021/07/28 01:07:02;;;;;;;20.48;14.95;;;;;;;17.68;84.16;99766.75;5066363;28;20025;-75
2021/07/28 01:09:28;;;;;;;20.20;13.82;;;;;;;17.70;84.12;99775.41;5066312;28;20021;-76
2021/07/28 01:12:03;;;;;;;16.23;13.77;;;;;;;17.67;84.24;99770.31;5066398;28;20043;-76
2021/07/28 01:14:28;;;;;;;22.35;14.98;;;;;;;17.68;83.95;99771.16;5065305;28;20075;-76
2021/07/28 01:16:55;;;;;;;23.00;15.88;;;;;;;17.64;84.06;99764.34;5066334;28;20017;-76
2021/07/28 01:19:24;;;;;;;22.00;15.43;;;;;;;17.64;84.20;99774.84;5066432;28;20044;-77
2021/07/28 01:21:51;;;;;;;21.45;15.48;;;;;;;17.64;84.40;99767.84;5064987;28;20021;-76
2021/07/28 01:24:17;;;;;;;20.85;16.17;;;;;;;17.65;84.19;99771.31;5064783;28;20373;-75
2021/07/28 01:26:43;;;;;;;20.35;14.20;;;;;;;17.66;84.28;99767.75;5066016;28;20495;-76
2021/07/28 01:29:10;;;;;;;21.08;14.20;;;;;;;17.69;84.25;99775.47;5064400;28;20040;-76
2021/07/28 01:31:40;;;;;;;20.00;14.10;;;;;;;17.78;84.56;99782.09;5066064;28;20025;-76
2021/07/28 01:34:07;;;;;;;16.17;13.23;;;;;;;17.83;84.54;99774.81;5066174;28;20076;-76
2021/07/28 01:36:33;;;;;;;17.70;13.05;;;;;;;17.82;84.34;99773.13;5065567;28;20083;-76
2021/07/28 01:38:59;;;;;;;21.75;12.88;;;;;;;17.94;84.13;99774.28;5065438;28;20028;-76
2021/07/28 01:41:24;;;;;;;15.88;12.93;;;;;;;17.97;84.21;99779.41;5064265;28;20112;-76
2021/07/28 01:43:50;;;;;;;18.73;13.57;;;;;;;17.95;83.85;99761.09;5065881;28;20033;-76
2021/07/28 01:46:15;;;;;;;17.25;12.38;;;;;;;18.01;83.87;99759.94;5065666;28;20056;-75
2021/07/28 01:48:41;;;;;;;16.17;11.65;;;;;;;18.06;84.30;99770.19;5065567;28;20024;-75
2021/07/28 01:51:06;;;;;;;16.02;11.48;;;;;;;18.16;83.97;99768.81;5064543;28;20048;-76
2021/07/28 01:53:32;;;;;;;14.63;11.70;;;;;;;18.23;83.89;99771.16;5065981;28;20077;-75
2021/07/28 01:55:58;;;;;;;16.58;11.90;;;;;;;18.31;83.45;99775.09;5065722;28;20381;-76
2021/07/28 01:58:24;;;;;;;15.43;11.20;;;;;;;18.35;83.40;99774.94;5065724;28;20029;-76
2021/07/28 02:00:49;;;;;;;15.52;11.95;;;;;;;18.37;83.42;99773.91;5064280;28;20029;-76
2021/07/28 02:03:15;;;;;;;15.85;12.07;;;;;;;18.38;82.79;99777.41;5065355;28;20111;-76
2021/07/28 02:05:42;;;;;;;18.98;12.60;;;;;;;18.33;83.16;99772.38;5065351;28;20078;-76
2021/07/28 02:08:15;;;;;;;17.55;12.35;;;;;;;18.28;82.97;99772.63;5065640;28;20043;-75
2021/07/28 02:10:46;;;;;;;16.27;12.50;;;;;;;18.30;82.92;99781.28;5065352;28;20021;-76
2021/07/28 02:13:12;;;;;;;19.55;12.00;;;;;;;18.27;82.68;99776.19;5064351;28;20021;-75
2021/07/28 02:15:38;;;;;;;17.55;12.07;;;;;;;18.23;82.99;99785.13;5064348;28;20495;-74
2021/07/28 02:18:06;;;;;;;18.25;12.35;;;;;;;18.23;82.89;99777.25;5064175;28;20029;-76
2021/07/28 02:20:32;;;;;;;15.25;12.32;;;;;;;18.23;83.04;99789.56;5065675;28;20050;-75
2021/07/28 02:22:58;;;;;;;13.60;11.40;;;;;;;18.19;82.79;99776.59;5065467;28;20040;-74
2021/07/28 02:25:24;;;;;;;16.95;12.15;;;;;;;18.17;82.66;99772.31;5066575;28;20093;-75
2021/07/28 02:27:49;;;;;;;16.77;12.55;;;;;;;18.13;82.89;99773.41;5069478;28;20052;-75
2021/07/28 02:30:16;;;;;;;14.43;12.30;;;;;;;18.06;83.05;99773.69;5069511;28;20031;-75
2021/07/28 02:32:42;;;;;;;16.15;12.05;;;;;;;18.05;83.10;99771.97;5069322;28;20025;-74
2021/07/28 02:35:08;;;;;;;18.88;11.45;;;;;;;18.01;82.96;99769.56;5068867;28;20061;-75
2021/07/28 02:37:34;;;;;;;15.43;10.65;;;;;;;18.03;83.00;99762.47;5069385;28;20032;-75
2021/07/28 02:40:00;;;;;;;13.90;10.68;;;;;;;18.00;82.75;99766.13;5067646;28;20035;-75
2021/07/28 02:42:25;;;;;;;15.18;11.35;;;;;;;18.02;82.76;99766.03;5069251;28;20028;-76
2021/07/28 02:44:51;;;;;;;14.57;11.90;;;;;;;18.07;82.68;99771.88;5069248;28;20049;-75
2021/07/28 02:47:16;;;;;;;15.38;11.45;;;;;;;18.08;82.40;99768.34;5069124;28;20028;-75
2021/07/28 02:49:42;;;;;;;18.08;11.15;;;;;;;18.13;82.21;99760.28;5068789;28;20127;-75
2021/07/28 02:52:07;;;;;;;15.48;11.32;;;;;;;18.19;82.32;99767.84;5069057;28;20029;-75
2021/07/28 02:54:33;;;;;;;14.25;10.90;;;;;;;18.21;82.28;99758.94;5068828;28;20021;-75
2021/07/28 02:56:58;;;;;;;12.55;9.88;;;;;;;18.27;81.92;99773.56;5068998;28;20032;-75
2021/07/28 02:59:24;;;;;;;15.23;10.43;;;;;;;18.35;81.82;99767.06;5067553;28;20051;-75
2021/07/28 03:01:50;;;;;;;14.00;10.82;;;;;;;18.39;81.69;99765.94;5068878;28;20033;-74
2021/07/28 03:04:16;;;;;;;15.38;10.18;;;;;;;18.37;81.58;99766.03;5068714;28;20036;-74
2021/07/28 03:06:41;;;;;;;15.50;10.80;;;;;;;18.37;81.51;99771.28;5068702;28;20028;-74
2021/07/28 03:09:06;;;;;;;14.88;9.98;;;;;;;18.38;81.31;99767.75;5068314;28;20021;-73
2021/07/28 03:11:32;;;;;;;13.05;9.70;;;;;;;18.41;81.24;99764.09;5068869;28;20025;-73
2021/07/28 03:13:57;;;;;;;13.57;10.18;;;;;;;18.36;81.13;99763.47;5068691;28;20525;-74
2021/07/28 03:16:23;;;;;;;10.65;8.90;;;;;;;18.41;81.27;99761.47;5068742;28;20028;-74
2021/07/28 03:18:49;;;;;;;11.48;8.80;;;;;;;18.40;80.98;99758.00;5068432;28;20043;-75
2021/07/28 03:21:14;;;;;;;12.73;9.13;;;;;;;18.43;80.95;99763.13;5068390;28;20143;-73
2021/07/28 03:23:40;;;;;;;17.50;9.63;;;;;;;18.50;80.90;99768.06;5068448;28;20047;-75
2021/07/28 03:26:05;;;;;;;11.32;9.32;;;;;;;18.51;80.63;99767.13;5066662;28;20461;-74
2021/07/28 03:28:31;;;;;;;10.88;9.35;;;;;;;18.52;80.31;99767.03;5068115;28;20044;-74
2021/07/28 03:30:56;;;;;;;12.50;9.77;;;;;;;18.54;80.30;99757.28;5068461;28;20028;-75
2021/07/28 03:33:21;;;;;;;10.73;9.50;;;;;;;18.66;80.61;99771.56;5068106;28;20029;-76
2021/07/28 03:35:47;;;;;;;17.58;10.48;;;;;;;18.76;80.14;99774.56;5067995;28;20052;-75
2021/07/28 03:38:13;;;;;;;12.23;10.27;;;;;;;18.81;80.08;99772.53;5066945;28;20043;-76
2021/07/28 03:40:39;;;;;;;14.48;9.68;;;;;;;18.80;79.51;99772.63;5067740;28;20107;-75
2021/07/28 03:43:05;;;;;;;13.60;9.82;;;;;;;18.77;79.62;99776.25;5068175;28;20378;-75
2021/07/28 03:45:30;;;;;;;14.77;10.38;;;;;;;18.75;79.67;99766.75;5067973;28;20020;-75
2021/07/28 03:47:56;;;;;;;17.15;9.43;;;;;;;18.76;79.82;99771.94;5067583;28;20021;-76
2021/07/28 03:50:21;;;;;;;11.15;9.27;;;;;;;18.74;79.86;99765.88;5067940;28;20036;-75
2021/07/28 03:52:46;;;;;;;13.02;10.30;;;;;;;18.81;80.11;99775.16;5068302;28;20021;-75
2021/07/28 03:55:12;;;;;;;10.95;9.32;;;;;;;18.83;79.98;99772.47;5066370;28;20020;-75
2021/07/28 03:57:38;;;;;;;13.07;8.30;;;;;;;18.87;79.41;99771.34;5067723;28;20021;-74
2021/07/28 04:00:05;;;;;;;13.27;7.85;;;;;;;18.86;79.38;99769.66;5067784;28;20021;-75
2021/07/28 04:02:30;;;;;;;12.63;8.32;;;;;;;18.81;78.99;99759.38;5066130;28;20021;-75
2021/07/28 04:04:56;;;;;;;11.98;7.90;;;;;;;18.81;78.80;99769.91;5067761;28;20029;-76
2021/07/28 04:07:21;;;;;;;14.32;7.07;;;;;;;18.79;79.00;99769.13;5066520;28;20076;-76
2021/07/28 04:09:47;;;;;;;11.68;7.50;;;;;;;18.86;78.83;99772.28;5066105;28;20024;-76
2021/07/28 04:12:12;;;;;;;10.52;6.90;;;;;;;18.87;78.47;99768.72;5067552;28;20021;-75
2021/07/28 04:14:38;;;;;;;15.38;7.40;;;;;;;18.92;78.31;99765.84;5067467;28;20021;-75
2021/07/28 04:17:03;;;;;;;11.57;7.35;;;;;;;18.96;77.86;99764.75;5067394;28;20036;-75
2021/07/28 04:19:29;;;;;;;9.68;6.85;;;;;;;19.04;78.03;99752.03;5067343;28;20025;-75
2021/07/28 04:21:54;;;;;;;8.40;5.68;;;;;;;19.34;78.36;99749.59;5067467;28;20112;-75
2021/07/28 04:24:19;;;;;;;8.50;5.40;;;;;;;19.89;78.84;99757.94;5066904;28;20378;-75
2021/07/28 04:26:45;;;;;;;9.38;6.25;;;;;;;20.24;77.01;99754.19;5065860;28;20035;-76
2021/07/28 04:29:10;;;;;;;7.45;5.88;;;;;;;20.46;76.25;99756.38;5065849;28;20028;-75
2021/07/28 04:31:35;;;;;;;7.68;4.82;;;;;;;20.73;75.76;99755.63;5065759;28;20047;-76
2021/07/28 04:34:00;;;;;;;7.32;5.68;;;;;;;20.91;74.39;99753.66;5066930;28;20028;-76
2021/07/28 04:36:26;;;;;;;9.07;5.20;;;;;;;20.89;73.09;99750.25;5065483;28;20113;-75
2021/07/28 04:38:51;;;;;;;8.68;5.15;;;;;;;20.94;72.66;99755.28;5065857;28;20056;-75
2021/07/28 04:41:17;;;;;;;7.32;5.05;;;;;;;21.07;71.72;99736.03;5066847;28;20017;-75
2021/07/28 04:43:42;;;;;;;9.95;5.95;;;;;;;21.26;70.82;99747.09;5067027;28;20078;-75
2021/07/28 04:46:07;;;;;;;8.10;5.90;;;;;;;21.37;69.62;99749.06;5066949;28;20047;-75
2021/07/28 04:48:33;;;;;;;8.65;6.25;;;;;;;21.39;69.50;99741.03;5066663;28;20024;-77
2021/07/28 04:50:59;;;;;;;9.15;6.30;;;;;;;21.46;68.95;99752.03;5066628;28;20060;-76
2021/07/28 04:53:30;;;;;;;8.18;6.47;;;;;;;21.37;68.33;99751.69;5066710;28;20045;-76
2021/07/28 04:55:56;;;;;;;10.23;5.95;;;;;;;21.18;67.81;99744.13;5066407;28;20029;-76
2021/07/28 04:58:22;;;;;;;15.68;6.40;;;;;;;20.98;68.10;99751.50;5066786;28;20107;-76
2021/07/28 05:00:49;;;;;;;10.52;7.07;;;;;;;20.80;68.56;99751.66;5064762;28;20024;-76
2021/07/28 05:03:15;;;;;;;8.77;5.97;;;;;;;20.70;68.62;99747.91;5066646;28;20147;-76
2021/07/28 05:05:41;;;;;;;7.93;6.70;;;;;;;20.47;69.07;99752.81;5065558;28;20021;-77
2021/07/28 05:08:06;;;;;;;8.93;6.22;;;;;;;20.32;69.30;99749.28;5066294;28;20036;-77
2021/07/28 05:10:32;;;;;;;10.23;7.18;;;;;;;20.22;69.86;99759.56;5066304;28;20082;-77
2021/07/28 05:12:57;;;;;;;13.18;7.72;;;;;;;20.11;70.29;99757.53;5066064;28;20032;-75
2021/07/28 05:15:23;;;;;;;8.50;7.00;;;;;;;20.00;70.68;99754.69;5066471;28;20020;-76
2021/07/28 05:17:48;;;;;;;10.70;7.40;;;;;;;19.96;71.27;99759.25;5066303;28;20450;-76
2021/07/28 05:20:14;;;;;;;14.02;7.65;;;;;;;19.91;71.06;99756.91;5066055;28;20084;-76
2021/07/28 05:22:40;;;;;;;9.10;7.05;;;;;;;19.86;71.18;99748.41;5064845;28;20040;-76
2021/07/28 05:25:06;;;;;;;11.60;7.57;;;;;;;19.78;71.39;99751.50;5064631;28;20100;-76
2021/07/28 05:27:31;;;;;;;8.50;7.28;;;;;;;19.75;71.89;99753.44;5065930;28;20087;-75
2021/07/28 05:29:57;;;;;;;11.75;7.47;;;;;;;19.70;72.20;99748.44;5064508;28;20028;-77
2021/07/28 05:32:23;;;;;;;10.20;6.90;;;;;;;19.60;72.33;99749.91;5064768;28;20021;-77
2021/07/28 05:34:50;;;;;;;12.10;7.47;;;;;;;19.61;72.65;99747.19;5066233;28;20117;-76
2021/07/28 05:37:15;;;;;;;12.43;8.10;;;;;;;19.59;72.68;99750.84;5066030;28;20051;-76
2021/07/28 05:39:41;;;;;;;11.38;7.60;;;;;;;19.55;73.09;99745.75;5064033;28;20085;-77
2021/07/28 05:42:06;;;;;;;10.82;6.82;;;;;;;19.57;72.69;99743.88;5064950;28;20029;-77
2021/07/28 05:44:32;;;;;;;11.00;6.85;;;;;;;19.66;72.80;99746.94;5064659;28;20025;-76
2021/07/28 05:46:58;;;;;;;12.40;7.47;;;;;;;19.77;72.36;99741.91;5065934;28;20017;-77
2021/07/28 05:49:23;;;;;;;10.02;7.05;;;;;;;19.82;72.15;99747.72;5065926;28;20051;-76
2021/07/28 05:51:49;;;;;;;9.38;6.93;;;;;;;19.90;71.70;99746.44;5066105;28;20025;-77
2021/07/28 05:54:14;;;;;;;9.35;6.88;;;;;;;19.98;71.70;99749.50;5065906;28;20584;-77
2021/07/28 05:56:39;;;;;;;12.63;6.93;;;;;;;20.11;71.77;99740.91;5065740;28;20021;-78
2021/07/28 05:59:05;;;;;;;8.52;6.65;;;;;;;20.22;71.33;99740.25;5065939;28;20025;-76
2021/07/28 06:01:30;;;;;;;10.18;7.00;;;;;;;20.35;71.45;99743.00;5065181;28;20377;-77
2021/07/28 06:03:55;;;;;;;11.18;6.38;;;;;;;20.47;70.74;99747.53;5065790;28;20084;-76
2021/07/28 06:06:21;;;;;;;11.65;7.20;;;;;;;20.56;70.51;99752.22;5065709;28;20489;-76
2021/07/28 06:08:46;;;;;;;11.35;7.10;;;;;;;20.62;70.14;99750.16;5064516;28;20025;-76
2021/07/28 06:11:11;;;;;;;12.05;7.47;;;;;;;20.67;70.29;99753.38;5065547;28;20025;-77
2021/07/28 06:13:37;;;;;;;9.68;6.45;;;;;;;20.75;70.26;99755.53;5064173;28;20377;-77
2021/07/28 06:16:02;;;;;;;10.23;6.63;;;;;;;20.87;69.32;99757.41;5065429;28;20024;-77
2021/07/28 06:18:28;;;;;;;8.77;6.00;;;;;;;20.92;69.65;99749.25;5065432;28;20025;-76
2021/07/28 06:20:53;;;;;;;11.48;6.43;;;;;;;21.00;68.76;99748.75;5065658;28;20021;-77
2021/07/28 06:23:19;;;;;;;11.57;6.82;;;;;;;20.98;68.45;99743.56;5065654;28;20047;-77
2021/07/28 06:25:45;;;;;;;13.50;7.63;;;;;;;21.03;68.11;99736.22;5065300;28;20040;-77
2021/07/28 06:28:11;;;;;;;9.38;6.70;;;;;;;21.14;67.84;99747.88;5065536;28;20081;-76
2021/07/28 06:30:37;;;;;;;11.43;6.95;;;;;;;21.20;67.76;99754.56;5065180;28;20036;-76
2021/07/28 06:33:02;;;;;;;9.38;6.30;;;;;;;21.34;67.67;99756.31;5064990;28;20025;-76
2021/07/28 06:35:28;;;;;;;8.73;5.90;;;;;;;21.67;66.41;99747.16;5063399;28;20068;-77
2021/07/28 06:37:53;;;;;;;11.05;6.80;;;;;;;21.87;65.27;99745.03;5065299;28;20025;-77
2021/07/28 06:40:18;;;;;;;14.40;6.63;;;;;;;21.94;65.16;99753.34;5064854;28;20025;-77
2021/07/28 06:42:44;;;;;;;11.57;6.32;;;;;;;21.91;64.18;99754.44;5063771;28;20025;-75
2021/07/28 06:45:09;;;;;;;9.77;6.40;;;;;;;21.82;64.50;99758.50;5065159;28;20025;-76
2021/07/28 06:47:35;;;;;;;10.63;7.50;;;;;;;21.72;64.69;99763.53;5064955;28;20461;-77
2021/07/28 06:50:00;;;;;;;10.32;6.35;;;;;;;21.70;65.46;99773.34;5065103;28;20032;-77
2021/07/28 06:52:26;;;;;;;11.32;7.28;;;;;;;21.83;64.88;99762.00;5064964;28;20039;-77
2021/07/28 06:54:51;;;;;;;9.95;6.75;;;;;;;21.99;64.18;99762.69;5065015;28;20056;-77
2021/07/28 06:57:16;;;;;;;11.48;6.00;;;;;;;22.25;64.01;99767.16;5065625;28;20025;-76
2021/07/28 06:59:42;;;;;;;12.80;7.00;;;;;;;22.49;62.93;99769.91;5064935;28;20056;-76
2021/07/28 07:02:07;;;;;;;10.50;6.07;;;;;;;22.60;62.24;99765.72;5064923;28;20024;-78
2021/07/28 07:04:32;;;;;;;10.23;6.60;;;;;;;22.63;61.46;99760.22;5065159;28;20021;-77
2021/07/28 07:06:58;;;;;;;12.63;6.90;;;;;;;22.62;62.07;99769.94;5064947;28;20364;-76
2021/07/28 07:09:23;;;;;;;9.68;6.38;;;;;;;22.76;60.71;99771.63;5063994;28;20070;-76
2021/07/28 07:11:48;;;;;;;11.00;6.47;;;;;;;22.76;60.59;99770.78;5063854;28;20053;-76
2021/07/28 07:14:14;;;;;;;13.65;7.00;;;;;;;22.63;61.14;99776.09;5068333;28;20025;-76
2021/07/28 07:16:39;;;;;;;12.02;7.28;;;;;;;22.53;61.71;99781.13;5068431;28;20044;-77
2021/07/28 07:19:04;;;;;;;15.20;7.93;;;;;;;22.29;61.04;99774.78;5067315;28;20024;-76
2021/07/28 07:21:30;;;;;;;9.98;6.45;;;;;;;22.06;61.95;99778.97;5068331;28;20057;-75
2021/07/28 07:23:55;;;;;;;10.85;7.50;;;;;;;21.83;62.64;99777.84;5068408;28;20031;-76
2021/07/28 07:26:21;;;;;;;12.25;7.95;;;;;;;21.65;63.06;99780.72;5068123;28;20074;-76
2021/07/28 07:28:46;;;;;;;11.95;8.18;;;;;;;21.54;63.60;99787.56;5068067;28;20021;-76
2021/07/28 07:31:12;;;;;;;11.98;8.63;;;;;;;21.45;63.82;99776.75;5068277;28;20032;-76
2021/07/28 07:33:40;;;;;;;13.88;9.13;;;;;;;21.37;63.92;99787.81;5068137;28;20029;-76
2021/07/28 07:36:11;;;;;;;11.55;8.68;;;;;;;21.26;64.27;99778.75;5068181;28;20063;-77
2021/07/28 07:38:38;;;;;;;14.57;8.57;;;;;;;21.32;64.42;99785.47;5066598;28;20023;-75
2021/07/28 07:41:04;;;;;;;11.57;7.63;;;;;;;21.58;64.03;99782.09;5067865;28;20025;-77
2021/07/28 07:43:30;;;;;;;10.32;7.35;;;;;;;21.89;63.37;99775.66;5068072;28;20028;-76
2021/07/28 07:45:55;;;;;;;10.73;7.32;;;;;;;22.15;61.50;99767.78;5067651;28;20033;-75
2021/07/28 07:48:23;;;;;;;11.93;7.30;;;;;;;22.38;61.13;99767.19;5067721;28;20025;-77
2021/07/28 07:50:48;;;;;;;12.57;6.18;;;;;;;22.71;60.99;99772.91;5067958;28;20025;-76
2021/07/28 07:53:14;;;;;;;9.40;7.20;;;;;;;23.12;59.77;99771.78;5068066;28;20036;-76
2021/07/28 07:55:39;;;;;;;9.25;7.00;;;;;;;23.40;58.97;99766.31;5067540;28;20032;-76
2021/07/28 07:58:04;;;;;;;10.93;7.30;;;;;;;23.37;57.92;99777.94;5066396;28;20090;-77
2021/07/28 08:00:30;;;;;;;9.90;7.22;;;;;;;23.22;57.93;99774.59;5067753;28;20051;-76
2021/07/28 08:02:56;;;;;;;12.55;6.53;;;;;;;23.21;58.15;99772.91;5067749;28;20033;-76
2021/07/28 08:05:21;;;;;;;14.32;8.15;;;;;;;23.18;55.84;99782.88;5067484;28;20028;-76
2021/07/28 08:07:47;;;;;;;13.52;9.05;;;;;;;22.96;56.82;99779.94;5067212;28;20041;-76
2021/07/28 08:10:12;;;;;;;14.82;7.90;;;;;;;22.80;56.09;99781.97;5067356;28;20024;-75
2021/07/28 08:12:38;;;;;;;13.50;8.30;;;;;;;22.48;56.65;99785.88;5067480;28;20531;-76
2021/07/28 08:15:04;;;;;;;19.42;10.02;;;;;;;22.20;57.68;99779.84;5067501;28;20043;-75
2021/07/28 08:17:29;;;;;;;15.95;10.48;;;;;;;21.98;58.65;99783.94;5067044;28;20013;-75
2021/07/28 08:19:54;;;;;;;18.70;10.10;;;;;;;21.77;59.30;99779.13;5067286;28;20465;-75
2021/07/28 08:22:20;;;;;;;18.77;10.35;;;;;;;21.62;60.08;99787.06;5067123;28;20021;-75
2021/07/28 08:24:45;;;;;;;18.77;11.10;;;;;;;21.38;60.92;99778.94;5065249;28;20102;-74
2021/07/28 08:27:10;;;;;;;16.27;9.05;;;;;;;21.16;61.79;99794.34;5067095;28;20093;-75
2021/07/28 08:29:36;;;;;;;14.25;9.63;;;;;;;20.95;62.45;99793.03;5067118;28;20047;-75
2021/07/28 08:32:01;;;;;;;15.43;11.15;;;;;;;20.72;62.98;99793.47;5066944;28;20031;-74
2021/07/28 08:34:27;;;;;;;15.05;11.02;;;;;;;20.45;64.26;99796.84;5065122;28;20108;-75
2021/07/28 08:36:52;;;;;;;17.55;11.95;;;;;;;20.30;65.18;99788.09;5066924;28;20020;-76
2021/07/28 08:39:18;;;;;;;19.27;12.85;;;;;;;20.18;65.34;99794.91;5065683;28;20060;-75
2021/07/28 08:41:47;;;;;;;17.17;12.23;;;;;;;19.96;65.91;99796.16;5067166;28;20021;-77
2021/07/28 08:44:17;;;;;;;17.80;13.50;;;;;;;19.80;66.00;99794.41;5065625;28;20396;-75
2021/07/28 08:46:44;;;;;;;21.00;12.38;;;;;;;19.64;67.37;99798.81;5065419;28;20028;-75
2021/07/28 08:49:12;;;;;;;18.52;12.95;;;;;;;19.52;68.08;99800.38;5066842;28;20032;-74
2021/07/28 08:51:39;;;;;;;20.25;12.30;;;;;;;19.41;68.65;99801.81;5066709;28;20025;-74
2021/07/28 08:54:04;;;;;;;19.23;13.35;;;;;;;19.31;69.37;99811.16;5066841;28;20021;-74
2021/07/28 08:56:30;;;;;;;21.10;14.25;;;;;;;19.22;69.91;99811.66;5066318;28;20024;-75
2021/07/28 08:58:55;;;;;;;21.63;14.95;;;;;;;19.16;70.65;99807.56;5066641;28;20385;-77
2021/07/28 09:01:21;;;;;;;22.25;14.32;;;;;;;19.12;71.38;99803.41;5066275;28;20442;-76
2021/07/28 09:03:46;;;;;;;23.33;14.18;;;;;;;19.10;71.31;99800.00;5066623;28;20501;-75
2021/07/28 09:06:28;;;;;;;27.58;15.65;;;;;;;19.15;71.27;99808.50;5066530;28;20527;-75
2021/07/28 09:08:59;;;;;;;19.88;14.43;;;;;;;19.22;71.43;99801.97;5066234;28;20063;-74
2021/07/28 09:11:24;;;;;;;21.52;14.80;;;;;;;19.32;71.94;99800.53;5066324;28;20048;-74
2021/07/28 09:13:54;;;;;;;20.30;13.20;;;;;;;19.55;72.23;99802.84;5066185;28;20036;-75
2021/07/28 09:16:19;;;;;;;20.45;14.10;;;;;;;19.76;71.47;99803.38;5066199;28;20100;-75
2021/07/28 09:18:49;;;;;;;17.80;12.57;;;;;;;19.94;71.16;99804.13;5066372;28;20021;-76
2021/07/28 09:21:20;;;;;;;18.83;12.57;;;;;;;20.13;70.55;99796.97;5066244;28;20048;-76
2021/07/28 09:23:48;;;;;;;14.95;12.57;;;;;;;20.22;70.48;99804.34;5066235;28;20025;-76
2021/07/28 09:26:25;;;;;;;19.17;12.85;;;;;;;20.41;69.69;99797.97;5065827;28;20025;-76
2021/07/28 09:29:17;;;;;;;17.50;12.57;;;;;;;20.48;69.40;99801.94;5065929;28;20029;-75
2021/07/28 09:32:20;;;;;;;18.00;12.82;;;;;;;20.54;69.05;99796.28;5065910;28;20043;-75
2021/07/28 09:34:46;;;;;;;19.17;11.85;;;;;;;20.54;69.64;99793.66;5042948;28;20053;-74
2021/07/28 09:37:15;;;;;;;17.30;12.60;;;;;;;20.51;69.27;99795.66;5043668;28;20036;-75
2021/07/28 09:39:45;;;;;;;17.50;13.18;;;;;;;20.48;69.34;99783.47;5042857;28;20042;-74
2021/07/28 09:42:15;;;;;;;18.02;13.75;;;;;;;20.45;69.60;99781.03;5043805;28;20085;-74
2021/07/28 09:44:44;;;;;;;17.48;12.35;;;;;;;20.31;69.21;99774.81;5043888;28;20028;-73
2021/07/28 09:47:16;;;;;;;23.83;14.80;;;;;;;20.10;70.05;99784.81;5043177;28;20116;-73
2021/07/28 09:49:46;;;;;;;22.70;15.20;;;;;;;19.96;70.70;99774.22;5043482;28;20026;-74
2021/07/28 09:52:32;;;;;;;16.75;13.32;;;;;;;19.81;71.29;99772.38;5043663;28;20037;-75
2021/07/28 09:54:58;;;;;;;15.05;13.30;;;;;;;19.62;71.34;99771.72;5043556;28;20025;-74
2021/07/28 09:57:25;;;;;;;16.85;11.98;;;;;;;19.53;71.81;99773.97;5043359;28;20022;-73
2021/07/28 10:00:06;;;;;;;14.40;10.98;;;;;;;19.47;71.55;99768.19;5043418;28;20064;-72
2021/07/28 10:02:35;;;;;;;15.50;11.57;;;;;;;19.52;72.10;99766.97;5043738;28;20052;-73
2021/07/28 10:05:02;;;;;;;20.80;12.70;;;;;;;19.74;72.40;99770.19;5050182;28;20093;-74
2021/07/28 10:07:30;;;;;;;17.33;12.82;;;;;;;19.88;71.69;99764.13;5065733;28;20025;-74
2021/07/28 10:10:03;;;;;;;14.80;11.32;;;;;;;19.84;70.35;99767.88;5065480;28;20028;-74
2021/07/28 10:12:30;;;;;;;23.00;13.18;;;;;;;19.64;71.18;99752.28;5065729;28;20021;-74
2021/07/28 10:14:57;;;;;;;17.65;12.85;;;;;;;19.58;71.36;99760.53;5065595;28;20491;-74
2021/07/28 10:17:24;;;;;;;20.95;13.48;;;;;;;19.49;71.84;99753.16;5065614;28;20032;-74
2021/07/28 10:19:50;;;;;;;18.10;13.30;;;;;;;19.47;71.47;99757.66;5065270;28;20032;-74
2021/07/28 10:22:16;;;;;;;18.73;12.70;;;;;;;19.42;72.37;99765.81;5065593;28;20079;-74
2021/07/28 10:24:47;;;;;;;16.40;12.80;;;;;;;19.47;72.79;99760.28;5065327;28;20021;-74
2021/07/28 10:27:14;;;;;;;16.35;12.05;;;;;;;19.48;72.81;99752.31;5064076;28;20025;-75
2021/07/28 10:29:40;;;;;;;15.65;12.32;;;;;;;19.56;72.99;99752.72;5065507;28;20105;-76
2021/07/28 10:32:06;;;;;;;13.60;10.68;;;;;;;19.56;72.71;99750.09;5065637;28;20032;-76
2021/07/28 10:34:34;;;;;;;15.73;11.85;;;;;;;19.72;72.43;99751.00;5064730;28;20049;-74
2021/07/28 10:37:02;;;;;;;16.30;12.10;;;;;;;19.83;72.15;99753.84;5065407;28;20048;-75
2021/07/28 10:39:43;;;;;;;17.38;11.60;;;;;;;19.87;71.33;99744.81;5065312;28;20508;-76
2021/07/28 10:42:14;;;;;;;15.02;11.18;;;;;;;19.87;71.72;99757.16;5065529;28;20021;-75
2021/07/28 10:45:09;;;;;;;15.43;10.90;;;;;;;19.93;71.20;99746.28;5064299;28;20032;-74
2021/07/28 10:47:35;;;;;;;17.42;10.35;;;;;;;19.93;71.16;99749.78;5062382;28;20501;-75
2021/07/28 10:50:08;;;;;;;11.57;9.00;;;;;;;19.92;71.52;99739.31;5067916;28;20036;-74
2021/07/28 10:52:35;;;;;;;14.45;10.57;;;;;;;19.98;71.55;99746.00;5068976;28;20048;-75
2021/07/28 10:55:01;;;;;;;16.30;10.57;;;;;;;20.13;71.09;99749.53;5068876;28;20024;-74
2021/07/28 10:57:35;;;;;;;14.15;10.50;;;;;;;20.21;71.03;99736.75;5069112;28;20024;-75
2021/07/28 11:00:01;;;;;;;12.48;10.23;;;;;;;20.55;71.31;99725.97;5068774;28;20021;-76
2021/07/28 11:02:51;;;;;;;13.20;10.27;;;;;;;21.05;69.02;99726.41;5068928;28;20059;-76
2021/07/28 11:05:21;;;;;;;13.40;9.73;;;;;;;21.26;68.35;99722.50;5069118;28;20032;-75
2021/07/28 11:08:02;;;;;;;14.70;10.43;;;;;;;21.26;67.02;99727.78;5068901;28;20049;-73
2021/07/28 11:10:35;;;;;;;14.20;11.13;;;;;;;21.10;67.25;99727.91;5068500;28;20051;-75
2021/07/28 11:13:05;;;;;;;15.63;10.18;;;;;;;21.09;67.61;99720.91;5068539;28;20027;-75
2021/07/28 11:15:31;;;;;;;11.90;9.10;;;;;;;21.16;66.85;99722.25;5068703;28;20025;-75
2021/07/28 11:17:57;;;;;;;14.65;9.90;;;;;;;21.25;65.78;99721.66;5068581;28;20036;-74
2021/07/28 11:20:29;;;;;;;12.55;9.90;;;;;;;21.22;66.46;99721.84;5068687;28;20078;-75
2021/07/28 11:23:16;;;;;;;10.73;8.90;;;;;;;21.29;66.68;99709.09;5068477;28;20570;-76